Time;durP1;ratioP1;P1;durP2;ratioP2;P2;SDS_P1;SDS_P2;PMS_P1;PMS_P2;Temp;Humidity;BMP_temperature;BMP_pressure;BME280_temperature;BME280_humidity;BME280_pressure;Samples;Min_cycle;Max_cycle;Signal;HPM_P1;HPM_P2
2023/07/25 00:00:35;;;;;;;32.85;7.10;;;30.40;92.40;;;;;;5051543;28;20518;-52
2023/07/25 00:03:39;;;;;;;32.47;6.07;;;30.30;92.70;;;;;;5052077;28;20051;-56
2023/07/25 00:06:43;;;;;;;33.90;7.10;;;30.40;92.70;;;;;;5051958;28;20395;-55
2023/07/25 00:09:47;;;;;;;31.58;6.55;;;30.60;92.20;;;;;;5051404;28;20047;-53
2023/07/25 00:12:53;;;;;;;29.80;6.32;;;30.60;92.40;;;;;;5047077;28;20070;-53
2023/07/25 00:15:57;;;;;;;40.92;7.20;;;30.50;92.70;;;;;;5051497;28;20048;-53
2023/07/25 00:19:01;;;;;;;29.75;8.30;;;30.40;92.80;;;;;;5051189;28;20043;-56
2023/07/25 00:22:05;;;;;;;37.83;6.40;;;30.30;93.20;;;;;;5051207;28;20399;-56
2023/07/25 00:25:10;;;;;;;30.40;6.65;;;30.20;93.70;;;;;;5051616;28;20052;-55
2023/07/25 00:28:14;;;;;;;33.85;6.65;;;30.20;93.40;;;;;;5051501;28;20979;-54
2023/07/25 00:31:18;;;;;;;30.42;7.13;;;30.10;93.50;;;;;;5038383;28;20048;-55
2023/07/25 00:34:22;;;;;;;32.28;6.47;;;30.00;93.60;;;;;;5052613;28;20047;-52
2023/07/25 00:37:30;;;;;;;33.80;6.70;;;30.00;93.40;;;;;;5052453;28;20048;-56
2023/07/25 00:40:39;;;;;;;22.10;5.30;;;29.90;93.50;;;;;;5052412;28;20400;-51
2023/07/25 00:43:43;;;;;;;21.50;6.05;;;29.90;93.50;;;;;;5052496;28;20040;-51
2023/07/25 00:46:47;;;;;;;24.70;6.10;;;29.90;93.50;;;;;;5052489;28;20399;-56
2023/07/25 00:49:54;;;;;;;29.60;5.95;;;29.80;93.80;;;;;;5052116;28;20048;-55
2023/07/25 00:53:00;;;;;;;30.40;7.18;;;29.70;93.70;;;;;;5051860;28;20052;-56
2023/07/25 00:56:07;;;;;;;25.98;6.35;;;29.70;94.00;;;;;;5052489;28;20077;-54
2023/07/25 00:59:11;;;;;;;26.10;7.20;;;29.70;94.20;;;;;;5039780;28;20424;-53
2023/07/25 01:02:16;;;;;;;26.30;6.53;;;29.70;94.30;;;;;;5039326;28;20048;-55
2023/07/25 01:05:21;;;;;;;36.28;7.00;;;29.70;94.20;;;;;;5039828;28;20040;-56
2023/07/25 01:08:25;;;;;;;28.58;6.90;;;29.70;94.20;;;;;;5039134;28;20048;-53
2023/07/25 01:11:29;;;;;;;27.77;6.38;;;29.80;94.10;;;;;;5051295;28;20055;-54
2023/07/25 01:14:34;;;;;;;25.98;6.68;;;29.80;93.80;;;;;;5051571;28;20040;-51
2023/07/25 01:17:38;;;;;;;35.55;6.40;;;29.90;93.70;;;;;;5051666;28;20051;-52
2023/07/25 01:20:46;;;;;;;31.55;7.95;;;30.00;93.50;;;;;;5051458;28;20526;-53
2023/07/25 01:23:50;;;;;;;27.80;6.38;;;30.10;93.40;;;;;;5050247;28;20403;-58
2023/07/25 01:26:55;;;;;;;30.15;6.35;;;30.00;93.50;;;;;;5037080;28;20052;-51
2023/07/25 01:30:00;;;;;;;27.00;6.55;;;29.90;93.50;;;;;;5042393;28;20056;-51
2023/07/25 01:33:04;;;;;;;26.88;5.68;;;30.00;93.10;;;;;;5049506;28;20103;-55
2023/07/25 01:36:08;;;;;;;28.35;6.05;;;30.00;93.20;;;;;;5049714;28;20060;-52
2023/07/25 01:39:12;;;;;;;28.40;7.07;;;29.90;93.70;;;;;;5049865;28;20065;-53
2023/07/25 01:42:16;;;;;;;26.77;5.88;;;29.70;94.50;;;;;;5049379;28;20040;-54
2023/07/25 01:45:21;;;;;;;27.55;6.80;;;29.40;95.70;;;;;;5049634;28;20044;-50
2023/07/25 01:48:25;;;;;;;29.08;7.70;;;29.10;98.00;;;;;;5049568;28;20047;-50
2023/07/25 01:51:29;;;;;;;18.98;7.03;;;28.90;98.60;;;;;;5049354;28;20040;-55
2023/07/25 01:54:33;;;;;;;33.05;8.45;;;28.80;99.40;;;;;;5049762;28;20060;-54
2023/07/25 01:57:37;;;;;;;24.05;6.93;;;28.60;99.90;;;;;;5048444;28;20415;-51
2023/07/25 02:00:41;;;;;;;25.20;6.25;;;28.60;99.90;;;;;;5048627;28;20044;-54
2023/07/25 02:03:45;;;;;;;29.67;7.57;;;28.50;99.90;;;;;;5044381;28;20040;-52
2023/07/25 02:06:49;;;;;;;29.92;7.72;;;28.40;99.90;;;;;;5049870;28;20052;-52
2023/07/25 02:09:53;;;;;;;26.27;7.43;;;28.40;99.90;;;;;;5049452;28;20048;-53
2023/07/25 02:12:57;;;;;;;25.73;7.63;;;28.40;99.90;;;;;;5048338;28;20060;-55
2023/07/25 02:16:01;;;;;;;31.30;7.82;;;28.40;99.90;;;;;;5049587;28;20047;-55
2023/07/25 02:19:05;;;;;;;30.58;6.90;;;28.40;99.90;;;;;;5048117;28;20040;-54
2023/07/25 02:22:09;;;;;;;28.25;7.47;;;28.40;99.90;;;;;;5047794;28;20048;-54
2023/07/25 02:25:13;;;;;;;29.80;7.97;;;28.40;99.90;;;;;;5049190;28;20044;-54
2023/07/25 02:28:17;;;;;;;26.95;7.25;;;28.20;99.90;;;;;;5048897;28;20048;-53
2023/07/25 02:31:21;;;;;;;32.78;9.50;;;28.20;99.90;;;;;;5048987;28;20068;-55
2023/07/25 02:34:25;;;;;;;36.13;8.88;;;28.20;99.90;;;;;;5048987;28;20400;-54
2023/07/25 02:37:29;;;;;;;37.17;8.35;;;28.30;99.90;;;;;;5041527;28;20044;-54
2023/07/25 02:40:33;;;;;;;45.88;10.07;;;28.30;99.90;;;;;;5048640;28;20048;-56
2023/07/25 02:43:37;;;;;;;31.05;8.50;;;28.30;99.90;;;;;;5047985;28;20503;-52
2023/07/25 02:46:41;;;;;;;33.38;8.93;;;28.30;99.90;;;;;;5049042;28;20608;-55
2023/07/25 02:49:45;;;;;;;41.88;10.32;;;28.20;99.90;;;;;;5048680;28;20044;-53
2023/07/25 02:52:49;;;;;;;36.33;9.73;;;28.20;99.90;;;;;;5048647;28;20047;-55
2023/07/25 02:55:54;;;;;;;42.80;10.65;;;28.20;99.90;;;;;;5049690;28;20044;-53
2023/07/25 02:58:58;;;;;;;45.30;9.30;;;28.10;99.90;;;;;;5052671;28;20044;-57
2023/07/25 03:02:01;;;;;;;43.45;10.05;;;28.10;99.90;;;;;;5052136;28;20040;-56
2023/07/25 03:05:05;;;;;;;36.03;9.65;;;28.00;99.90;;;;;;5052769;28;20412;-53
2023/07/25 03:08:10;;;;;;;31.17;9.27;;;28.00;99.90;;;;;;5052564;28;20036;-56
2023/07/25 03:11:14;;;;;;;31.60;10.10;;;28.00;99.90;;;;;;5052805;28;20055;-54
2023/07/25 03:14:18;;;;;;;38.25;9.43;;;28.00;99.90;;;;;;5051564;28;20110;-57
2023/07/25 03:17:21;;;;;;;35.17;9.35;;;27.90;99.90;;;;;;5052009;28;20068;-55
2023/07/25 03:20:26;;;;;;;31.63;10.57;;;27.70;99.90;;;;;;5052147;28;20052;-53
2023/07/25 03:23:29;;;;;;;35.95;9.73;;;27.50;99.90;;;;;;5052264;28;20039;-54
2023/07/25 03:26:33;;;;;;;43.70;10.23;;;27.50;99.90;;;;;;5051252;28;20554;-53
2023/07/25 03:29:37;;;;;;;46.25;10.43;;;27.50;99.90;;;;;;5051466;28;20055;-55
2023/07/25 03:32:41;;;;;;;43.72;11.50;;;27.50;99.90;;;;;;5051774;28;20056;-54
2023/07/25 03:35:45;;;;;;;43.63;10.65;;;27.40;99.90;;;;;;5051555;28;20067;-54
2023/07/25 03:38:49;;;;;;;45.20;9.73;;;27.20;99.90;;;;;;5052082;28;20047;-55
2023/07/25 03:41:53;;;;;;;42.03;10.23;;;26.90;99.90;;;;;;5052025;28;20377;-52
2023/07/25 03:44:57;;;;;;;45.95;11.48;;;26.90;99.90;;;;;;5052274;28;20408;-51
2023/07/25 03:48:01;;;;;;;39.65;10.82;;;26.90;99.90;;;;;;5051956;28;20502;-51
2023/07/25 03:51:05;;;;;;;43.58;11.02;;;26.90;99.90;;;;;;5051255;28;20096;-53
2023/07/25 03:54:09;;;;;;;34.00;9.98;;;26.70;99.90;;;;;;5051089;28;20514;-51
2023/07/25 04:01:57;;;;;;;41.88;11.00;;;26.40;99.90;;;;;;5052071;28;20052;-55
2023/07/25 04:05:01;;;;;;;49.33;13.02;;;26.30;99.90;;;;;;5050450;28;20048;-52
2023/07/25 04:08:05;;;;;;;43.53;11.05;;;26.20;99.90;;;;;;5050341;28;20052;-55
2023/07/25 04:11:09;;;;;;;37.78;10.75;;;25.90;99.90;;;;;;5051741;28;20428;-54
2023/07/25 04:14:13;;;;;;;44.67;11.50;;;25.60;99.90;;;;;;5051132;28;20039;-54
2023/07/25 04:17:17;;;;;;;39.92;11.23;;;25.30;99.90;;;;;;5051710;28;20052;-55
2023/07/25 04:20:21;;;;;;;34.45;10.68;;;25.00;99.90;;;;;;5050312;28;20040;-55
2023/07/25 04:23:26;;;;;;;46.28;10.55;;;24.90;99.90;;;;;;5051111;28;20084;-55
2023/07/25 04:26:30;;;;;;;33.15;9.35;;;24.80;99.90;;;;;;5050692;28;20048;-56
2023/07/25 04:29:34;;;;;;;33.90;9.90;;;24.70;99.90;;;;;;5050133;28;20515;-52
2023/07/25 04:32:38;;;;;;;28.08;8.77;;;24.60;99.90;;;;;;5050126;28;20056;-52
2023/07/25 04:35:45;;;;;;;25.17;8.15;;;24.70;99.90;;;;;;5051055;28;20055;-54
2023/07/25 04:38:49;;;;;;;33.45;8.00;;;24.60;99.90;;;;;;5051148;28;20044;-53
2023/07/25 04:41:53;;;;;;;28.42;7.95;;;24.30;99.90;;;;;;5051372;28;20040;-52
2023/07/25 04:44:56;;;;;;;26.63;8.38;;;24.10;99.90;;;;;;5050965;28;20499;-52
2023/07/25 04:48:00;;;;;;;36.63;7.57;;;23.90;99.90;;;;;;5051123;28;20064;-51
2023/07/25 04:51:05;;;;;;;33.95;8.70;;;23.90;99.90;;;;;;5051178;28;20438;-53
2023/07/25 04:54:09;;;;;;;33.90;8.63;;;23.90;99.90;;;;;;5050855;28;20506;-54
2023/07/25 04:57:13;;;;;;;41.45;9.10;;;24.00;99.90;;;;;;5051167;28;20412;-55
2023/07/25 05:00:17;;;;;;;36.45;8.63;;;24.10;99.90;;;;;;5049764;28;20056;-52
2023/07/25 05:03:21;;;;;;;27.80;7.47;;;24.10;99.90;;;;;;5050661;28;20044;-53
2023/07/25 05:06:25;;;;;;;27.85;8.05;;;24.20;99.90;;;;;;5051136;28;20056;-54
2023/07/25 05:09:29;;;;;;;33.33;7.10;;;24.30;99.90;;;;;;5081998;22;20047;-53
2023/07/25 05:12:34;;;;;;;28.95;7.05;;;24.20;99.90;;;;;;5062904;28;20047;-52
2023/07/25 05:15:38;;;;;;;30.95;6.93;;;24.30;99.90;;;;;;5064501;28;20051;-52
2023/07/25 05:18:42;;;;;;;23.75;7.25;;;24.30;99.90;;;;;;5070020;28;20305;-52
2023/07/25 05:21:46;;;;;;;23.88;7.03;;;24.30;99.90;;;;;;5067423;28;20035;-53
2023/07/25 05:24:50;;;;;;;31.70;7.05;;;24.20;99.90;;;;;;5065942;28;20514;-53
2023/07/25 05:27:54;;;;;;;24.42;6.97;;;24.20;99.90;;;;;;5072087;28;20053;-52
2023/07/25 05:30:58;;;;;;;18.17;6.53;;;24.30;99.90;;;;;;5070104;28;20408;-52
2023/07/25 05:34:01;;;;;;;34.42;8.18;;;24.20;99.90;;;;;;5073523;28;20043;-52
2023/07/25 05:37:06;;;;;;;33.08;6.90;;;24.40;99.90;;;;;;5070093;28;20075;-52
2023/07/25 05:40:10;;;;;;;32.67;8.32;;;24.60;99.90;;;;;;5069839;28;20407;-53
2023/07/25 05:43:15;;;;;;;22.63;6.63;;;24.80;99.90;;;;;;5071481;28;20039;-53
2023/07/25 05:46:19;;;;;;;31.95;7.57;;;24.90;99.90;;;;;;5069415;28;20040;-55
2023/07/25 05:49:23;;;;;;;39.72;7.80;;;24.70;99.90;;;;;;5070144;28;20055;-56
2023/07/25 05:52:27;;;;;;;31.17;8.60;;;24.30;99.90;;;;;;5069982;28;20055;-56
2023/07/25 05:55:31;;;;;;;25.02;7.68;;;23.50;99.90;;;;;;5069526;28;20063;-54
2023/07/25 05:58:35;;;;;;;29.98;9.20;;;23.00;99.90;;;;;;5070181;28;20051;-53
2023/07/25 06:01:39;;;;;;;34.28;8.73;;;22.60;99.90;;;;;;5069218;28;20403;-52
2023/07/25 06:04:46;;;;;;;32.10;9.75;;;22.50;99.90;;;;;;5069302;28;20051;-54
2023/07/25 06:07:50;;;;;;;29.45;9.43;;;22.50;99.90;;;;;;5069610;28;20231;-54
2023/07/25 06:10:54;;;;;;;32.90;8.98;;;22.70;99.90;;;;;;5069014;28;20186;-52
2023/07/25 06:13:58;;;;;;;25.90;7.80;;;23.00;99.90;;;;;;5068879;28;20554;-52
2023/07/25 06:17:02;;;;;;;34.85;8.20;;;23.50;99.90;;;;;;5069215;28;20047;-53
2023/07/25 06:20:07;;;;;;;26.02;7.50;;;23.90;99.90;;;;;;5069039;28;20067;-52
2023/07/25 06:23:11;;;;;;;32.63;7.00;;;23.90;99.90;;;;;;5069135;28;20047;-52
2023/07/25 06:26:16;;;;;;;22.45;6.65;;;24.30;99.90;;;;;;5068860;28;20055;-52
2023/07/25 06:29:19;;;;;;;31.17;7.20;;;25.40;99.90;;;;;;5069416;28;20549;-52
2023/07/25 06:32:24;;;;;;;25.13;6.10;;;26.10;99.90;;;;;;5068911;28;20112;-52
2023/07/25 06:35:28;;;;;;;30.58;6.60;;;26.40;99.90;;;;;;5068955;28;20055;-52
2023/07/25 06:38:32;;;;;;;27.30;6.40;;;26.60;99.90;;;;;;5069286;28;20360;-53
2023/07/25 06:41:36;;;;;;;24.50;6.22;;;27.90;99.90;;;;;;5049059;28;20048;-55
2023/07/25 06:44:40;;;;;;;23.83;6.53;;;29.20;99.90;;;;;;5049274;28;20040;-53
2023/07/25 06:47:44;;;;;;;21.27;6.60;;;29.10;99.90;;;;;;5036801;28;20423;-54
2023/07/25 06:50:48;;;;;;;23.67;7.80;;;28.60;99.90;;;;;;5048851;28;20044;-55
2023/07/25 06:53:53;;;;;;;23.27;7.10;;;28.20;99.90;;;;;;5049070;28;20056;-53
2023/07/25 06:56:56;;;;;;;24.25;8.10;;;27.60;99.90;;;;;;5048580;28;20526;-54
2023/07/25 07:00:00;;;;;;;26.95;7.75;;;26.60;99.90;;;;;;5048819;28;20503;-52
2023/07/25 07:03:05;;;;;;;24.23;7.25;;;26.00;99.90;;;;;;5048480;28;20040;-52
2023/07/25 07:06:08;;;;;;;17.92;7.15;;;25.60;99.90;;;;;;5048701;28;20309;-52
2023/07/25 07:09:13;;;;;;;24.30;7.32;;;25.20;99.90;;;;;;5048831;28;20044;-52
2023/07/25 07:12:17;;;;;;;25.42;7.55;;;25.00;99.90;;;;;;5048900;28;20048;-53
2023/07/25 07:15:24;;;;;;;33.17;7.78;;;24.80;99.90;;;;;;5048682;28;20048;-52
2023/07/25 07:18:28;;;;;;;25.95;7.68;;;24.90;99.90;;;;;;5048872;28;20420;-53
2023/07/25 07:21:32;;;;;;;21.20;6.00;;;25.20;99.90;;;;;;5048786;28;20047;-53
2023/07/25 07:24:36;;;;;;;22.83;6.38;;;26.00;99.90;;;;;;5048878;28;20044;-55
2023/07/25 07:27:40;;;;;;;25.98;7.55;;;26.60;99.90;;;;;;5048578;28;20056;-54
2023/07/25 07:30:51;;;;;;;26.70;7.90;;;26.20;99.90;;;;;;5048794;28;20072;-55
2023/07/25 07:34:08;;;;;;;;;;;25.90;99.90;;;;;;5049336;28;20439;-52
2023/07/25 07:37:12;;;;;;;21.67;6.20;;;25.30;99.90;;;;;;5048548;28;20475;-55
2023/07/25 07:40:16;;;;;;;23.00;6.70;;;25.70;99.90;;;;;;5048387;28;20060;-54
2023/07/25 07:43:20;;;;;;;26.77;6.88;;;27.10;99.90;;;;;;5050674;28;20048;-56
2023/07/25 07:46:28;;;;;;;17.65;5.72;;;29.30;99.90;;;;;;5051871;28;20514;-54
2023/07/25 07:49:33;;;;;;;26.75;7.47;;;29.70;99.90;;;;;;5052207;28;20055;-53
2023/07/25 07:52:41;;;;;;;26.33;7.00;;;28.50;99.90;;;;;;5051903;28;20395;-55
2023/07/25 07:55:45;;;;;;;22.40;6.57;;;29.00;99.90;;;;;;5066558;28;20048;-56
2023/07/25 07:58:49;;;;;;;21.27;6.32;;;30.10;99.90;;;;;;5072029;28;20044;-52
2023/07/25 08:01:53;;;;;;;23.60;6.63;;;30.70;99.90;;;;;;5071701;28;20051;-52
2023/07/25 08:04:57;;;;;;;24.85;6.65;;;31.20;99.90;;;;;;5072180;28;20415;-52
2023/07/25 08:08:01;;;;;;;22.70;6.15;;;31.40;99.90;;;;;;5071569;28;20051;-56
2023/07/25 08:11:05;;;;;;;27.40;6.65;;;30.60;99.90;;;;;;5071819;28;20055;-56
2023/07/25 08:14:09;;;;;;;23.15;6.90;;;29.40;99.90;;;;;;5071841;28;20047;-53
2023/07/25 08:17:14;;;;;;;26.58;7.50;;;28.50;99.90;;;;;;5071318;28;20043;-53
2023/07/25 08:20:18;;;;;;;23.42;7.25;;;28.40;99.90;;;;;;5071472;28;20542;-52
2023/07/25 08:23:22;;;;;;;25.05;7.25;;;27.60;99.90;;;;;;5071344;28;20052;-51
2023/07/25 08:26:26;;;;;;;21.48;7.13;;;28.30;99.90;;;;;;5071116;28;20059;-56
2023/07/25 08:29:30;;;;;;;26.35;7.43;;;28.70;99.90;;;;;;5071598;28;20055;-55
2023/07/25 08:32:34;;;;;;;27.25;6.45;;;28.80;99.90;;;;;;5071201;28;20069;-53
2023/07/25 08:35:39;;;;;;;20.50;6.45;;;30.60;99.90;;;;;;5071233;28;20056;-52
2023/07/25 08:38:43;;;;;;;34.08;7.88;;;29.30;99.90;;;;;;5071118;28;20423;-55
2023/07/25 08:41:52;;;;;;;22.23;6.65;;;28.90;99.90;;;;;;5071086;28;20379;-55
2023/07/25 08:44:56;;;;;;;22.67;5.57;;;31.40;99.90;;;;;;5071233;28;20032;-57
2023/07/25 08:48:04;;;;;;;20.67;5.93;;;33.60;99.90;;;;;;5070094;28;20048;-52
2023/07/25 08:51:22;;;;;;;17.25;6.18;;;33.50;99.90;;;;;;5070938;28;20510;-52
2023/07/25 08:54:35;;;;;;;22.15;7.82;;;33.20;99.90;;;;;;5070994;28;20071;-56
2023/07/25 08:57:39;;;;;;;21.45;6.35;;;32.20;99.90;;;;;;5070752;28;20067;-56
2023/07/25 09:00:44;;;;;;;21.88;6.80;;;32.30;99.90;;;;;;5070913;28;20510;-56
2023/07/25 09:03:49;;;;;;;30.25;6.63;;;31.80;99.90;;;;;;5070831;28;20039;-53
2023/07/25 09:06:53;;;;;;;19.02;6.63;;;31.80;99.90;;;;;;5070704;28;20039;-52
2023/07/25 09:09:58;;;;;;;20.45;6.22;;;31.90;99.90;;;;;;5070572;28;20052;-55
2023/07/25 09:13:02;;;;;;;23.38;6.20;;;32.60;99.90;;;;;;5070359;28;20070;-53
2023/07/25 09:16:06;;;;;;;22.15;6.20;;;33.00;99.90;;;;;;5070828;28;20048;-52
2023/07/25 09:19:11;;;;;;;21.30;6.25;;;33.70;99.90;;;;;;5070500;28;20051;-56
2023/07/25 09:22:29;;;;;;;20.02;5.68;;;36.10;99.90;;;;;;5071008;28;20613;-52
2023/07/25 09:25:33;;;;;;;20.42;5.35;;;36.70;99.40;;;;;;5070764;28;20039;-57
2023/07/25 09:28:49;;;;;;;20.88;5.50;;;35.90;98.70;;;;;;5070221;28;20518;-53
2023/07/25 09:31:52;;;;;;;24.55;5.68;;;35.10;99.90;;;;;;5070175;28;20047;-56
2023/07/25 09:35:06;;;;;;;16.70;5.47;;;34.90;99.40;;;;;;5057877;28;20047;-53
2023/07/25 09:38:10;;;;;;;16.70;5.25;;;36.50;99.20;;;;;;5069760;28;20059;-56
2023/07/25 09:41:14;;;;;;;13.85;4.72;;;38.60;96.30;;;;;;5069922;28;20514;-51
2023/07/25 09:44:18;;;;;;;16.17;5.35;;;40.00;94.40;;;;;;5069953;28;20039;-54
2023/07/25 09:47:24;;;;;;;19.83;5.43;;;41.20;91.50;;;;;;5069827;28;20048;-54
2023/07/25 09:50:33;;;;;;;16.33;4.30;;;41.90;90.70;;;;;;5069980;28;20043;-56
2023/07/25 09:53:38;;;;;;;16.85;4.93;;;44.20;90.00;;;;;;5069859;28;20979;-56
2023/07/25 09:56:42;;;;;;;21.02;5.45;;;44.40;87.10;;;;;;5069362;28;20047;-55
2023/07/25 09:59:49;;;;;;;17.13;5.05;;;45.70;83.70;;;;;;5069440;28;20419;-53
2023/07/25 10:02:54;;;;;;;17.85;6.07;;;46.10;83.50;;;;;;5069250;28;20043;-54
2023/07/25 10:05:58;;;;;;;19.08;5.78;;;46.40;81.60;;;;;;5068989;28;20035;-53
2023/07/25 10:09:02;;;;;;;25.25;5.70;;;46.30;79.70;;;;;;5069031;28;20040;-54
2023/07/25 10:12:07;;;;;;;21.58;6.25;;;45.80;79.00;;;;;;5069438;28;20399;-54
2023/07/25 10:15:12;;;;;;;19.70;6.10;;;44.30;78.20;;;;;;5069503;28;20048;-51
2023/07/25 10:18:27;;;;;;;21.55;6.22;;;45.60;77.70;;;;;;5069024;28;20049;-54
2023/07/25 10:21:52;;;;;;;20.40;5.43;;;46.40;77.30;;;;;;5068299;28;20043;-53
2023/07/25 10:24:56;;;;;;;25.52;4.85;;;46.70;76.20;;;;;;5069341;28;20373;-55
2023/07/25 10:28:02;;;;;;;19.92;5.97;;;43.80;79.00;;;;;;5069140;28;20423;-55
2023/07/25 10:31:10;;;;;;;19.73;6.22;;;44.90;78.00;;;;;;5069573;28;20399;-53
2023/07/25 10:34:15;;;;;;;17.40;5.63;;;46.10;76.50;;;;;;5069267;28;20051;-55
2023/07/25 10:37:43;;;;;;;18.42;5.40;;;46.30;75.30;;;;;;5069429;28;20055;-55
2023/07/25 10:40:55;;;;;;;16.02;5.75;;;46.50;75.20;;;;;;5069310;28;20411;-55
2023/07/25 10:44:01;;;;;;;17.20;5.13;;;44.50;77.10;;;;;;5069701;28;20051;-52
2023/07/25 10:47:44;;;;;;;19.73;5.38;;;42.90;78.30;;;;;;5069382;28;20052;-53
2023/07/25 10:50:47;;;;;;;19.38;6.18;;;40.30;80.60;;;;;;5069111;28;20107;-55
2023/07/25 10:54:08;;;;;;;23.75;6.22;;;38.10;83.30;;;;;;5069606;28;20048;-54
2023/07/25 10:57:22;;;;;;;16.70;5.55;;;36.60;85.50;;;;;;5069455;28;20514;-52
2023/07/25 11:00:36;;;;;;;21.23;5.68;;;35.40;89.60;;;;;;5068957;28;20040;-53
2023/07/25 11:03:40;;;;;;;25.00;6.10;;;34.70;90.60;;;;;;5068667;28;20418;-52
2023/07/25 11:06:44;;;;;;;20.38;6.53;;;34.00;90.20;;;;;;5068894;28;20047;-51
2023/07/25 11:09:48;;;;;;;20.45;6.18;;;33.70;92.10;;;;;;5068379;28;20059;-52
2023/07/25 11:12:57;;;;;;;20.50;6.28;;;33.70;93.20;;;;;;5068904;28;20047;-52
2023/07/25 11:16:06;;;;;;;23.23;6.13;;;34.20;93.40;;;;;;5069071;28;20048;-54
2023/07/25 11:19:10;;;;;;;20.95;5.63;;;35.70;92.60;;;;;;5072211;28;20406;-51
2023/07/25 11:22:15;;;;;;;25.63;6.38;;;36.00;92.10;;;;;;5072694;28;20059;-51
2023/07/25 11:39:51;;;;;;;20.83;7.55;;;28.60;99.90;;;;;;5072495;28;20043;-53
2023/07/25 11:46:56;;;;;;;14.50;5.07;;;33.80;99.90;;;;;;5072256;28;19912;-55
2023/07/25 11:57:08;;;;;;;12.07;4.78;;;39.10;99.60;;;;;;5072483;28;20044;-51
2023/07/25 12:00:12;;;;;;;12.50;4.63;;;39.70;95.80;;;;;;5071658;28;20043;-50
2023/07/25 12:03:24;;;;;;;19.88;5.72;;;40.00;94.70;;;;;;5072142;28;20509;-52
2023/07/25 12:06:46;;;;;;;15.15;4.78;;;40.50;94.50;;;;;;5071963;28;20044;-51
2023/07/25 12:13:16;;;;;;;10.88;5.20;;;38.60;95.40;;;;;;5071911;28;20060;-52
2023/07/25 12:16:42;;;;;;;13.90;5.32;;;38.70;96.20;;;;;;5071985;28;20051;-56
2023/07/25 12:19:53;;;;;;;13.98;5.85;;;39.80;94.40;;;;;;5071183;28;20047;-56
2023/07/25 12:23:05;;;;;;;11.95;4.95;;;40.70;94.80;;;;;;5071363;28;20043;-56
2023/07/25 12:26:10;;;;;;;15.20;5.32;;;40.70;94.00;;;;;;5071911;28;20063;-56
2023/07/25 12:29:21;;;;;;;21.67;6.20;;;40.90;93.60;;;;;;5071354;28;20051;-53
2023/07/25 12:32:24;;;;;;;16.50;6.63;;;40.90;91.90;;;;;;5071663;28;20052;-53
2023/07/25 12:35:28;;;;;;;15.75;5.13;;;41.00;93.60;;;;;;5071497;28;20051;-56
2023/07/25 12:38:33;;;;;;;13.85;6.05;;;40.80;93.20;;;;;;5071700;28;20051;-56
2023/07/25 12:41:37;;;;;;;16.52;6.07;;;40.70;92.60;;;;;;5070950;28;20047;-56
2023/07/25 12:44:42;;;;;;;13.27;5.65;;;40.30;92.10;;;;;;5071576;28;20059;-54
2023/07/25 12:47:45;;;;;;;10.10;5.15;;;39.80;90.90;;;;;;5071537;28;20043;-52
2023/07/25 12:51:27;;;;;;;16.70;5.18;;;39.70;92.20;;;;;;5070975;28;20056;-56
2023/07/25 12:54:50;;;;;;;15.95;5.53;;;39.70;91.20;;;;;;5071262;28;20060;-56
2023/07/25 12:57:54;;;;;;;11.13;4.88;;;37.20;90.50;;;;;;5071509;28;20521;-52
2023/07/25 13:00:59;;;;;;;12.88;4.93;;;36.70;90.80;;;;;;5070815;28;20050;-52
2023/07/25 13:04:03;;;;;;;12.35;4.55;;;36.60;91.70;;;;;;5071380;28;20036;-53
2023/07/25 13:07:07;;;;;;;9.38;4.40;;;36.50;92.40;;;;;;5071094;28;20403;-52
2023/07/25 13:10:11;;;;;;;7.70;3.65;;;37.10;89.90;;;;;;5070767;28;20048;-52
2023/07/25 13:13:15;;;;;;;6.85;4.10;;;36.40;86.80;;;;;;5070842;28;20056;-53
2023/07/25 13:16:19;;;;;;;10.52;3.95;;;36.00;85.30;;;;;;5071308;28;20067;-52
2023/07/25 13:19:22;;;;;;;7.20;3.55;;;35.30;83.10;;;;;;5058592;28;20055;-53
2023/07/25 13:22:27;;;;;;;7.32;3.80;;;31.80;83.50;;;;;;5070487;28;20427;-55
2023/07/25 13:25:31;;;;;;;8.73;3.90;;;31.40;88.30;;;;;;5070423;28;20411;-53
2023/07/25 13:31:57;;;;;;;8.38;3.92;;;31.30;85.00;;;;;;5057600;28;20055;-51
2023/07/25 13:35:01;;;;;;;8.65;3.70;;;31.60;88.60;;;;;;5070615;28;20055;-56
2023/07/25 13:44:50;;;;;;;8.93;3.60;;;32.80;87.00;;;;;;5070970;28;20043;-52
2023/07/25 13:47:55;;;;;;;13.15;4.07;;;31.80;86.90;;;;;;5070413;28;20039;-52
2023/07/25 13:51:18;;;;;;;9.07;4.38;;;32.10;86.10;;;;;;5060051;28;20664;-52
2023/07/25 13:54:59;;;;;;;10.82;3.85;;;32.40;90.50;;;;;;5070167;28;20051;-51
2023/07/25 13:58:03;;;;;;;10.00;3.95;;;33.70;90.00;;;;;;5070090;28;20040;-52
2023/07/25 14:01:26;;;;;;;10.40;3.70;;;33.70;83.10;;;;;;5069339;28;20044;-55
2023/07/25 14:04:30;;;;;;;8.85;3.97;;;33.40;84.60;;;;;;5070219;28;20047;-52
2023/07/25 14:07:34;;;;;;;7.07;3.75;;;33.40;85.20;;;;;;5069875;28;20412;-53
2023/07/25 14:10:42;;;;;;;8.50;3.58;;;34.00;88.90;;;;;;5069582;28;20056;-52
2023/07/25 14:13:46;;;;;;;7.45;3.72;;;34.30;86.80;;;;;;5070041;28;20048;-54
2023/07/25 14:16:50;;;;;;;11.48;3.90;;;34.40;89.00;;;;;;5069977;28;20047;-54
2023/07/25 14:19:54;;;;;;;13.93;3.67;;;34.20;87.70;;;;;;5069930;28;20546;-53
2023/07/25 14:22:58;;;;;;;12.27;3.60;;;33.90;88.60;;;;;;5069498;28;20051;-52
2023/07/25 14:26:02;;;;;;;12.00;3.55;;;33.60;87.50;;;;;;5069846;28;20402;-52
2023/07/25 14:32:28;;;;;;;11.95;4.30;;;33.70;90.00;;;;;;5069678;28;20055;-52
2023/07/25 14:39:14;;;;;;;9.63;3.72;;;33.50;88.00;;;;;;5070224;28;20048;-56
2023/07/25 14:42:37;;;;;;;12.23;3.80;;;33.50;89.30;;;;;;5069501;28;20522;-55
2023/07/25 14:45:41;;;;;;;10.30;3.70;;;31.50;86.60;;;;;;5069947;28;20047;-56
2023/07/25 14:48:45;;;;;;;16.50;4.22;;;31.40;89.90;;;;;;5070249;28;20403;-51
2023/07/25 14:51:49;;;;;;;12.93;3.85;;;32.00;89.00;;;;;;5071568;28;20055;-56
2023/07/25 14:58:34;;;;;;;11.63;3.78;;;32.20;89.70;;;;;;5073524;28;20042;-54
2023/07/25 15:01:38;;;;;;;13.82;4.07;;;32.00;88.50;;;;;;5072757;28;20053;-52
2023/07/25 15:04:42;;;;;;;14.60;4.15;;;31.90;89.50;;;;;;5073593;28;20051;-53
2023/07/25 15:07:46;;;;;;;13.75;4.53;;;30.90;89.70;;;;;;5073345;28;20486;-55
2023/07/25 15:11:09;;;;;;;16.67;4.75;;;31.10;88.70;;;;;;5073389;28;20525;-52
2023/07/25 15:14:32;;;;;;;11.73;4.22;;;30.90;88.50;;;;;;5073217;28;20044;-53
2023/07/25 15:17:36;;;;;;;19.92;4.28;;;30.80;90.30;;;;;;5073212;28;20410;-52
2023/07/25 15:21:17;;;;;;;14.75;4.40;;;30.60;89.70;;;;;;5073014;28;20067;-53
2023/07/25 15:24:21;;;;;;;10.68;4.07;;;30.30;87.70;;;;;;5073212;28;20146;-52
2023/07/25 15:27:27;;;;;;;10.98;3.65;;;30.00;85.70;;;;;;5073063;28;20043;-52
2023/07/25 15:30:31;;;;;;;9.55;3.45;;;29.90;87.70;;;;;;5072866;28;20044;-51
2023/07/25 15:33:35;;;;;;;14.98;3.58;;;29.70;87.00;;;;;;5072496;28;20051;-56
2023/07/25 15:40:03;;;;;;;11.65;3.65;;;29.40;89.70;;;;;;5072881;28;20047;-51
2023/07/25 15:43:07;;;;;;;14.93;3.70;;;29.40;90.60;;;;;;5072240;28;20051;-52
2023/07/25 15:46:29;;;;;;;13.52;3.85;;;29.50;90.50;;;;;;5072767;28;20043;-53
2023/07/25 15:53:15;;;;;;;11.35;3.90;;;29.40;92.10;;;;;;5072272;28;20039;-51
2023/07/25 15:56:19;;;;;;;11.50;3.75;;;29.40;91.80;;;;;;5072857;28;20107;-51
2023/07/25 15:59:24;;;;;;;12.77;3.70;;;29.30;90.30;;;;;;5072371;28;20103;-55
2023/07/25 16:02:28;;;;;;;13.73;3.85;;;29.00;91.30;;;;;;5058852;28;20044;-52
2023/07/25 16:05:31;;;;;;;17.77;4.15;;;28.90;90.50;;;;;;5072487;28;20047;-51
2023/07/25 16:08:55;;;;;;;13.55;4.10;;;28.90;91.30;;;;;;5062421;28;20056;-53
2023/07/25 16:15:43;;;;;;;12.38;3.13;;;28.70;90.50;;;;;;5072181;28;20048;-52
2023/07/25 16:19:05;;;;;;;11.55;2.30;;;28.40;88.60;;;;;;5072076;28;20087;-55
2023/07/25 16:22:09;;;;;;;12.70;2.55;;;28.20;87.10;;;;;;5071638;28;20502;-52
2023/07/25 16:25:32;;;;;;;8.55;2.50;;;27.90;85.90;;;;;;5072262;28;20051;-55
2023/07/25 16:29:14;;;;;;;14.60;2.70;;;27.90;87.00;;;;;;5071676;28;20044;-52
2023/07/25 16:32:17;;;;;;;8.88;2.30;;;27.80;87.30;;;;;;5071972;28;20506;-53
2023/07/25 16:35:21;;;;;;;8.20;2.30;;;27.50;86.80;;;;;;5059789;28;20120;-51
2023/07/25 16:38:27;;;;;;;10.23;2.17;;;27.00;85.50;;;;;;5072227;28;20047;-52
2023/07/25 16:41:34;;;;;;;7.18;3.17;;;26.80;85.70;;;;;;5071709;28;20060;-54
2023/07/25 16:44:38;;;;;;;7.20;2.20;;;26.80;88.60;;;;;;5071531;28;20047;-52
2023/07/25 16:48:19;;;;;;;12.40;2.47;;;27.00;86.90;;;;;;5071538;28;20047;-53
2023/07/25 16:51:24;;;;;;;10.77;2.45;;;26.50;87.30;;;;;;5071426;28;20047;-53
2023/07/25 16:54:28;;;;;;;10.50;2.67;;;26.50;87.90;;;;;;5071377;28;20401;-54
2023/07/25 17:00:55;;;;;;;11.00;2.80;;;26.10;89.00;;;;;;5071011;28;20051;-54
2023/07/25 17:03:59;;;;;;;9.88;3.00;;;26.50;89.30;;;;;;5071192;28;20395;-52
2023/07/25 17:07:42;;;;;;;11.57;2.88;;;26.40;90.40;;;;;;5071102;28;20290;-55